createdAt,value
2023-06-29T00:07:04.545Z,181
2023-06-29T00:22:04.484Z,181
2023-06-29T00:37:04.513Z,181
2023-06-29T00:52:04.499Z,181
2023-06-29T01:07:04.628Z,181
2023-06-29T01:22:04.537Z,181
2023-06-29T01:37:04.542Z,181
2023-06-29T01:52:04.542Z,181
2023-06-29T02:07:04.547Z,181
2023-06-29T02:22:04.566Z,181
2023-06-29T02:37:04.544Z,180
2023-06-29T02:52:04.531Z,181
2023-06-29T03:07:06.473Z,181
2023-06-29T03:22:04.550Z,181
2023-06-29T03:37:04.597Z,181
2023-06-29T03:52:04.563Z,180
2023-06-29T04:07:04.610Z,180
2023-06-29T04:22:04.575Z,180
2023-06-29T04:37:04.567Z,180
2023-06-29T04:52:04.552Z,180
2023-06-29T05:07:04.611Z,180
2023-06-29T05:22:04.581Z,180
2023-06-29T05:37:04.556Z,180
2023-06-29T05:52:04.562Z,180
2023-06-29T06:07:04.618Z,180
2023-06-29T06:22:04.603Z,180
2023-06-29T06:37:04.599Z,180
2023-06-29T06:52:04.556Z,180
2023-06-29T07:07:04.639Z,180
2023-06-29T07:37:04.596Z,180
2023-06-29T07:52:04.593Z,179
2023-06-29T08:07:06.800Z,180
2023-06-29T08:22:04.617Z,180
2023-06-29T08:37:04.627Z,179
2023-06-29T08:52:04.603Z,179
2023-06-29T09:07:04.635Z,179
2023-06-29T09:22:04.655Z,179
2023-06-29T09:37:04.643Z,179
2023-06-29T09:52:04.730Z,179
2023-06-29T10:07:04.680Z,178
2023-06-29T10:22:04.690Z,178
2023-06-29T10:37:04.683Z,178
2023-06-29T10:52:04.709Z,178
2023-06-29T11:07:04.698Z,179
2023-06-29T11:22:04.672Z,179
2023-06-29T11:37:15.278Z,178
2023-06-29T11:52:04.671Z,178
2023-06-29T12:07:04.737Z,177
2023-06-29T12:22:04.742Z,177
2023-06-29T12:37:04.668Z,178
2023-06-29T12:52:04.684Z,177
2023-06-29T13:16:04.047Z,177
2023-06-29T13:31:04.015Z,177
2023-06-29T13:46:03.983Z,178
2023-06-29T14:01:04.019Z,177
2023-06-29T14:16:03.981Z,178
2023-06-29T14:31:03.976Z,178
2023-06-29T14:46:04.070Z,177
2023-06-29T15:01:04.090Z,177
2023-06-29T15:16:04.025Z,177
2023-06-29T15:31:04.012Z,177
2023-06-29T15:46:04.022Z,177
2023-06-29T16:01:04.007Z,177
2023-06-29T16:16:03.996Z,177
2023-06-29T16:31:04.101Z,177
2023-06-29T16:46:04.004Z,177
2023-06-29T17:01:04.002Z,177
2023-06-29T17:16:04.074Z,175
2023-06-29T17:31:04.026Z,175
2023-06-29T17:46:04.036Z,175
2023-06-29T18:01:04.112Z,175
2023-06-29T18:10:59.853Z,175
2023-06-29T18:22:47.738Z,175
2023-06-29T18:37:47.750Z,174
2023-06-29T18:52:47.772Z,174
2023-06-29T19:07:47.752Z,174
2023-06-29T19:22:47.757Z,174
2023-06-29T19:37:47.771Z,174
2023-06-29T19:52:47.898Z,174
2023-06-29T20:07:47.771Z,174
2023-06-29T20:22:47.850Z,173
2023-06-29T20:37:47.786Z,174
2023-06-29T20:52:47.742Z,173
2023-06-29T21:07:48.030Z,173
2023-06-29T21:22:47.786Z,173
2023-06-29T21:37:47.778Z,174
2023-06-29T21:52:47.803Z,174
2023-06-29T22:07:47.789Z,174
2023-06-29T22:22:47.911Z,174
2023-06-29T22:37:47.830Z,174
2023-06-29T22:52:47.823Z,173
2023-06-29T23:07:47.808Z,173
2023-06-29T23:22:47.841Z,174
2023-06-29T23:37:47.824Z,173
2023-06-29T23:52:47.811Z,173
